Time;durP1;ratioP1;P1;durP2;ratioP2;P2;SDS_P1;SDS_P2;PMS_P1;PMS_P2;Temp;Humidity;BMP_temperature;BMP_pressure;BME280_temperature;BME280_humidity;BME280_pressure;Samples;Min_cycle;Max_cycle;Signal;HPM_P1;HPM_P2
2022/11/04 00:02:02;;;;;;;3.57;2.80;;;;;;;12.73;99.23;97177.00;5176763;22;20624;-88
2022/11/04 00:04:05;;;;;;;4.83;2.73;;;;;;;12.71;100.00;97156.22;5214509;22;20629;-90
2022/11/04 00:06:09;;;;;;;3.20;2.10;;;;;;;12.71;100.00;97156.22;5189630;22;20673;-89
2022/11/04 00:08:24;;;;;;;3.33;2.50;;;;;;;12.72;99.72;97152.66;5188588;22;20560;-89
2022/11/04 00:12:44;;;;;;;3.90;2.40;;;;;;;12.69;99.48;97145.06;5188732;22;20614;-89
2022/11/04 00:14:47;;;;;;;4.93;1.93;;;;;;;12.70;98.83;97151.97;5213868;22;20568;-89
2022/11/04 00:19:13;;;;;;;2.33;1.80;;;;;;;12.68;99.43;97164.34;5190038;22;20603;-89
2022/11/04 00:30:39;;;;;;;2.17;1.50;;;;;;;12.63;98.82;97172.75;5213129;22;20560;-88
2022/11/04 00:35:06;;;;;;;2.00;1.40;;;;;;;12.59;97.95;97166.16;5188572;22;20611;-89
2022/11/04 00:37:09;;;;;;;2.17;1.50;;;;;;;12.57;98.60;97166.31;5188796;22;20576;-89
2022/11/04 00:39:12;;;;;;;3.73;1.83;;;;;;;12.57;97.71;97170.69;5187971;22;20614;-89
2022/11/04 00:41:28;;;;;;;3.40;1.77;;;;;;;12.56;99.20;97169.88;5213806;22;20597;-89
2022/11/04 00:43:31;;;;;;;3.77;2.30;;;;;;;12.55;98.75;97167.41;5188231;22;20587;-89
2022/11/04 00:45:34;;;;;;;3.00;2.00;;;;;;;12.53;99.47;97164.94;5214945;22;20574;-89
2022/11/04 00:47:38;;;;;;;4.00;1.80;;;;;;;12.52;97.83;97163.25;5215554;22;20911;-89
2022/11/04 00:49:41;;;;;;;3.13;1.80;;;;;;;12.54;99.45;97165.75;5213818;22;21116;-88
2022/11/04 00:51:45;;;;;;;3.53;1.80;;;;;;;12.55;98.75;97167.41;5188667;22;20580;-89
2022/11/04 00:53:49;;;;;;;2.43;1.63;;;;;;;12.54;98.93;97163.13;5214126;22;20571;-89
2022/11/04 00:55:52;;;;;;;3.10;1.83;;;;;;;12.54;99.33;97163.13;5214279;22;20614;-89
2022/11/04 00:57:55;;;;;;;3.50;1.67;;;;;;;12.55;100.00;97159.56;5214446;22;20558;-89
2022/11/04 00:59:58;;;;;;;2.60;1.60;;;;;;;12.56;99.16;97169.06;5213902;22;20559;-89
2022/11/04 01:02:01;;;;;;;2.10;1.60;;;;;;;12.57;99.60;97170.69;5188238;22;21017;-88
2022/11/04 01:04:05;;;;;;;6.23;1.80;;;;;;;12.55;99.76;97170.03;5187796;22;20607;-89
2022/11/04 01:06:08;;;;;;;4.77;2.00;;;;;;;12.54;100.00;97178.81;5213715;22;20571;-88
2022/11/04 01:08:14;;;;;;;3.70;2.10;;;;;;;12.50;100.00;97185.31;5187696;22;20583;-89
2022/11/04 01:10:17;;;;;;;3.30;1.90;;;;;;;12.48;99.89;97190.69;5214137;22;20662;-89
2022/11/04 01:12:20;;;;;;;4.50;2.57;;;;;;;12.50;100.00;97187.94;5188395;22;20567;-88
2022/11/04 01:14:23;;;;;;;4.33;2.20;;;;;;;12.51;100.00;97189.56;5188434;22;20581;-88
2022/11/04 01:16:27;;;;;;;5.17;2.30;;;;;;;12.52;100.00;97199.06;5188770;22;20604;-88
2022/11/04 01:18:30;;;;;;;3.77;2.23;;;;;;;12.53;100.00;97192.88;5189122;22;20970;-89
2022/11/04 01:20:33;;;;;;;2.40;1.90;;;;;;;12.49;99.44;97194.09;5214574;22;20655;-89
2022/11/04 01:22:36;;;;;;;2.80;1.90;;;;;;;12.44;100.00;97191.91;5215288;22;20649;-89
2022/11/04 01:24:41;;;;;;;3.47;2.27;;;;;;;12.40;99.50;97194.94;5187081;22;20578;-88
2022/11/04 01:26:44;;;;;;;4.00;2.63;;;;;;;12.39;100.00;97188.06;5187876;22;20561;-88
2022/11/04 01:28:47;;;;;;;4.67;2.57;;;;;;;12.38;100.00;97192.47;5188091;22;20663;-89
2022/11/04 01:30:51;;;;;;;6.43;2.67;;;;;;;12.39;100.00;97195.91;5188934;22;21111;-88
2022/11/04 01:32:54;;;;;;;3.20;2.20;;;;;;;12.41;100.00;97201.81;5189697;22;20580;-89
2022/11/04 01:34:59;;;;;;;3.30;2.10;;;;;;;12.43;100.00;97210.34;5188910;22;21138;-89
2022/11/04 01:37:02;;;;;;;4.23;2.47;;;;;;;12.45;100.00;97211.06;5188561;22;20580;-89
2022/11/04 01:39:05;;;;;;;2.43;1.60;;;;;;;12.42;100.00;97213.94;5188739;22;20637;-89
2022/11/04 01:41:16;;;;;;;3.40;1.93;;;;;;;12.40;100.00;97210.63;5190391;22;20944;-88
2022/11/04 01:43:22;;;;;;;3.00;1.50;;;;;;;12.37;99.63;97203.06;5214374;22;20923;-89
2022/11/04 01:45:25;;;;;;;2.10;1.50;;;;;;;12.39;100.00;97204.56;5188095;22;20583;-88
2022/11/04 01:47:32;;;;;;;2.40;1.70;;;;;;;12.41;99.46;97205.25;5188841;22;20634;-89
2022/11/04 01:49:38;;;;;;;2.20;1.30;;;;;;;12.42;100.00;97200.88;5214908;22;20576;-89
2022/11/04 01:51:47;;;;;;;2.40;1.50;;;;;;;12.43;99.83;97202.50;5188280;22;20626;-89
2022/11/04 01:53:52;;;;;;;2.03;1.50;;;;;;;12.42;100.00;97195.66;5216286;22;20688;-88
2022/11/04 01:55:57;;;;;;;2.00;1.17;;;;;;;12.40;98.73;97206.25;5188757;22;21008;-89
2022/11/04 01:58:06;;;;;;;3.43;1.53;;;;;;;12.40;99.34;97202.78;5215107;22;20581;-88
2022/11/04 02:00:10;;;;;;;1.80;1.10;;;;;;;12.39;98.03;97209.00;5190388;22;20576;-89
2022/11/04 02:02:14;;;;;;;3.33;1.07;;;;;;;12.41;98.53;97209.69;5190596;22;21173;-89
2022/11/04 02:04:28;;;;;;;1.77;1.00;;;;;;;12.39;97.69;97204.56;5192950;22;20607;-88
2022/11/04 02:06:32;;;;;;;2.23;1.10;;;;;;;12.39;98.06;97199.34;5190738;22;20564;-88
2022/11/04 02:08:35;;;;;;;4.83;1.90;;;;;;;12.39;98.54;97195.91;5189608;22;20579;-88
2022/11/04 02:10:41;;;;;;;1.90;1.30;;;;;;;12.39;97.54;97209.00;5190468;22;20586;-89
2022/11/04 02:12:49;;;;;;;1.70;1.03;;;;;;;12.39;96.94;97209.00;5190990;22;20629;-89
2022/11/04 02:14:54;;;;;;;1.27;0.80;;;;;;;12.41;97.99;97209.69;5189632;22;20581;-88
2022/11/04 02:17:01;;;;;;;4.50;1.07;;;;;;;12.38;97.66;97202.09;5189583;22;20608;-89
2022/11/04 02:19:16;;;;;;;2.23;1.10;;;;;;;12.36;97.84;97204.84;5242122;22;20569;-89
2022/11/04 02:21:34;;;;;;;1.90;1.00;;;;;;;12.36;97.08;97206.66;5189123;22;20649;-89
2022/11/04 02:24:07;;;;;;;2.07;1.13;;;;;;;12.36;97.83;97197.00;5189636;22;20572;-89
2022/11/04 02:26:37;;;;;;;1.50;1.10;;;;;;;12.36;98.68;97188.34;5186803;22;20583;-89
2022/11/04 02:28:56;;;;;;;2.10;1.40;;;;;;;12.35;98.11;97189.31;5191360;22;20584;-88
2022/11/04 02:31:03;;;;;;;2.33;1.07;;;;;;;12.36;98.25;97198.81;5216249;22;20566;-88
2022/11/04 02:33:17;;;;;;;3.63;1.10;;;;;;;12.37;97.88;97205.66;5189087;22;20637;-89
2022/11/04 02:35:24;;;;;;;2.03;1.03;;;;;;;12.36;97.90;97198.81;5189955;22;20666;-89
2022/11/04 02:37:33;;;;;;;2.47;1.17;;;;;;;12.38;98.20;97207.34;5190383;22;20578;-88
2022/11/04 02:39:40;;;;;;;3.50;1.10;;;;;;;12.37;98.71;97206.53;5190821;22;20580;-88
2022/11/04 02:41:50;;;;;;;2.47;1.30;;;;;;;12.37;98.00;97210.91;5190072;22;20643;-89
2022/11/04 02:43:58;;;;;;;4.20;1.73;;;;;;;12.36;97.52;97198.81;5216022;22;20938;-88
2022/11/04 02:46:05;;;;;;;3.10;1.50;;;;;;;12.38;98.04;97209.94;5213957;22;20629;-88
2022/11/04 02:48:11;;;;;;;2.00;1.20;;;;;;;12.31;96.88;97216.66;5191637;22;20988;-89
2022/11/04 02:50:20;;;;;;;4.50;1.30;;;;;;;12.28;98.04;97207.34;5216119;22;20578;-89
2022/11/04 02:52:27;;;;;;;4.03;1.20;;;;;;;12.30;97.10;97204.59;5190350;22;20603;-89
2022/11/04 02:54:33;;;;;;;3.50;1.20;;;;;;;12.31;97.90;97206.22;5216728;22;20911;-88
2022/11/04 02:56:39;;;;;;;1.90;1.00;;;;;;;12.31;97.47;97208.84;5190540;22;20571;-89
2022/11/04 02:58:44;;;;;;;3.50;1.10;;;;;;;12.29;96.83;97208.16;5215970;22;20642;-88
2022/11/04 03:00:48;;;;;;;2.93;1.20;;;;;;;12.29;96.22;97208.16;5190370;22;20572;-89
2022/11/04 03:02:57;;;;;;;2.73;1.20;;;;;;;12.29;97.66;97211.59;5190461;22;20608;-88
2022/11/04 03:05:01;;;;;;;1.90;0.90;;;;;;;12.28;95.74;97216.94;5188360;22;20627;-89
2022/11/04 03:07:07;;;;;;;1.83;1.13;;;;;;;12.28;95.99;97214.34;5190791;22;20584;-89
2022/11/04 03:09:12;;;;;;;1.80;1.60;;;;;;;12.30;97.35;97217.66;5189580;22;20563;-89
2022/11/04 03:11:16;;;;;;;2.40;1.00;;;;;;;12.30;96.87;97215.03;5190062;22;20576;-89
2022/11/04 03:13:21;;;;;;;2.63;1.10;;;;;;;12.32;96.75;97219.16;5190463;22;20918;-88
2022/11/04 03:15:28;;;;;;;2.00;1.10;;;;;;;12.35;96.11;97223.28;5187693;22;20710;-88
2022/11/04 03:17:33;;;;;;;1.60;1.00;;;;;;;12.33;96.77;97223.44;5165062;22;20580;-88
2022/11/04 03:19:40;;;;;;;2.13;1.20;;;;;;;12.34;95.33;97222.47;5215329;22;20616;-88
2022/11/04 03:21:50;;;;;;;2.10;0.90;;;;;;;12.33;96.36;97215.59;5214960;22;20621;-89
2022/11/04 03:23:53;;;;;;;2.67;1.20;;;;;;;12.32;96.67;97219.16;5188212;22;20925;-88
2022/11/04 03:25:58;;;;;;;2.60;1.43;;;;;;;12.30;96.07;97223.69;5214680;22;20584;-88
2022/11/04 03:28:05;;;;;;;2.17;1.20;;;;;;;12.26;95.43;97232.78;5190058;22;20591;-89
2022/11/04 03:30:11;;;;;;;1.77;1.13;;;;;;;12.21;94.57;97225.47;5188643;22;20906;-88
2022/11/04 03:32:20;;;;;;;2.67;1.33;;;;;;;12.20;92.96;97232.50;5190356;22;20587;-89
2022/11/04 03:34:23;;;;;;;2.23;1.10;;;;;;;12.21;94.87;97239.38;5214626;22;20608;-88
2022/11/04 03:36:28;;;;;;;3.10;1.10;;;;;;;12.21;93.95;97242.00;5215500;22;20623;-88
2022/11/04 03:38:31;;;;;;;2.00;1.07;;;;;;;12.22;94.21;97261.94;5190222;22;20989;-88
2022/11/04 03:40:34;;;;;;;2.33;0.80;;;;;;;12.23;94.31;97253.94;5214221;22;20566;-88
2022/11/04 03:42:42;;;;;;;2.30;1.00;;;;;;;12.24;94.16;97252.19;5189757;22;20613;-90
2022/11/04 03:44:46;;;;;;;2.80;1.40;;;;;;;12.25;94.34;97253.81;5214708;22;20574;-89
2022/11/04 03:46:49;;;;;;;3.07;1.30;;;;;;;12.25;93.63;97252.06;5215424;22;20577;-88
2022/11/04 03:48:52;;;;;;;5.03;1.30;;;;;;;12.26;94.25;97247.63;5190893;22;20567;-89
2022/11/04 03:50:56;;;;;;;2.87;1.30;;;;;;;12.26;93.68;97261.53;5189944;22;20595;-90
2022/11/04 03:53:00;;;;;;;4.57;1.10;;;;;;;12.28;93.60;97258.78;5189477;22;20965;-90
2022/11/04 03:55:03;;;;;;;2.77;1.90;;;;;;;12.25;92.96;97256.44;5190178;22;20583;-90
2022/11/04 03:57:19;;;;;;;4.23;1.17;;;;;;;12.23;92.16;97258.38;5189479;22;20576;-92
2022/11/04 03:59:36;;;;;;;2.50;1.07;;;;;;;12.24;92.06;97257.41;5214288;22;21001;-90
2022/11/04 04:01:45;;;;;;;2.70;1.20;;;;;;;12.26;93.26;97263.31;5189388;22;20569;-90
2022/11/04 04:03:54;;;;;;;2.30;1.00;;;;;;;12.25;92.55;97264.28;5191305;22;21202;-90
2022/11/04 04:05:59;;;;;;;3.80;1.30;;;;;;;12.23;92.85;97266.22;5190491;22;20587;-90
2022/11/04 04:08:13;;;;;;;3.03;1.40;;;;;;;12.23;93.39;97273.25;5188701;22;20629;-90
2022/11/04 04:12:40;;;;;;;2.70;1.50;;;;;;;12.22;92.57;97266.34;5215959;22;20575;-90
2022/11/04 04:14:45;;;;;;;1.63;1.10;;;;;;;12.21;93.07;97262.06;5188686;22;20608;-90
2022/11/04 04:16:49;;;;;;;5.33;1.93;;;;;;;12.21;93.42;97257.69;5190070;22;20580;-90
2022/11/04 04:18:55;;;;;;;3.20;2.50;;;;;;;12.19;92.17;97269.22;5191344;22;20619;-90
2022/11/04 04:21:02;;;;;;;3.40;1.10;;;;;;;12.18;92.35;97260.56;5191007;22;21110;-90
2022/11/04 04:27:29;;;;;;;3.00;1.40;;;;;;;12.16;92.95;97261.66;5189999;22;20611;-90
2022/11/04 04:27:54;;;;;;;2.60;1.17;;;;;;;12.15;93.13;97257.38;5216838;22;20704;-90
2022/11/04 04:29:57;;;;;;;4.20;1.50;;;;;;;12.12;93.00;97261.09;5215137;22;20669;-90
2022/11/04 04:32:04;;;;;;;3.00;1.20;;;;;;;12.10;92.19;97259.56;5186649;22;21262;-90
2022/11/04 04:34:08;;;;;;;3.33;1.30;;;;;;;12.08;92.87;97256.28;5189313;22;20686;-90
2022/11/04 04:36:11;;;;;;;2.67;1.30;;;;;;;12.05;92.76;97257.34;5190681;22;20697;-90
2022/11/04 04:45:23;;;;;;;4.77;1.10;;;;;;;11.99;94.67;97262.31;5188862;22;21142;-90
2022/11/04 04:47:30;;;;;;;2.93;1.10;;;;;;;11.94;93.82;97259.28;5216629;22;20697;-91
2022/11/04 04:49:34;;;;;;;5.83;0.90;;;;;;;11.91;93.94;97259.53;5216173;22;20570;-91
2022/11/04 04:51:42;;;;;;;3.43;1.10;;;;;;;11.87;94.29;97261.56;5190777;22;20681;-89
2022/11/04 04:53:45;;;;;;;2.57;1.03;;;;;;;11.84;94.84;97261.03;5188395;22;20563;-90
2022/11/04 04:55:49;;;;;;;2.97;1.03;;;;;;;11.84;93.25;97264.44;5189289;22;20572;-90
2022/11/04 04:57:52;;;;;;;2.80;1.07;;;;;;;11.83;94.76;97256.75;5215499;22;20702;-90
2022/11/04 04:59:55;;;;;;;2.90;1.13;;;;;;;11.84;93.50;97255.78;5189155;22;20624;-91
2022/11/04 05:01:58;;;;;;;3.93;1.20;;;;;;;11.83;93.36;97251.53;5189335;22;20692;-90
2022/11/04 05:04:02;;;;;;;2.57;1.37;;;;;;;11.80;95.18;97234.34;5188753;22;20633;-90
2022/11/04 05:06:06;;;;;;;2.93;1.23;;;;;;;11.82;94.42;97232.41;5190080;22;20613;-90
2022/11/04 05:08:09;;;;;;;3.37;1.20;;;;;;;11.83;95.05;97235.84;5214425;22;20571;-90
2022/11/04 05:10:15;;;;;;;3.37;1.43;;;;;;;11.82;95.43;97237.63;5190705;22;20888;-90
2022/11/04 05:12:19;;;;;;;2.17;1.10;;;;;;;11.81;95.48;97222.91;5190190;22;20683;-90
2022/11/04 05:14:22;;;;;;;3.17;1.30;;;;;;;11.78;93.94;97204.91;5190040;22;21121;-90
2022/11/04 05:16:25;;;;;;;2.97;1.50;;;;;;;11.75;94.70;97192.09;5189354;22;20589;-90
2022/11/04 05:18:28;;;;;;;6.30;1.70;;;;;;;11.76;94.79;97191.16;5190980;22;21142;-90
2022/11/04 05:20:32;;;;;;;3.03;1.20;;;;;;;11.75;95.02;97190.47;5190271;22;20579;-90
2022/11/04 05:22:36;;;;;;;3.33;1.60;;;;;;;11.73;94.28;97181.91;5191283;22;20612;-91
2022/11/04 05:24:39;;;;;;;3.60;1.43;;;;;;;11.70;94.62;97184.78;5189299;22;20583;-90
2022/11/04 05:26:42;;;;;;;3.17;1.60;;;;;;;11.68;95.12;97184.97;5189345;22;20662;-90
2022/11/04 05:28:47;;;;;;;2.30;1.23;;;;;;;11.68;95.91;97190.19;5216251;22;20617;-91
2022/11/04 05:30:50;;;;;;;3.93;1.30;;;;;;;11.66;94.70;97191.25;5188846;22;20576;-90
2022/11/04 05:32:53;;;;;;;3.20;1.33;;;;;;;11.64;94.54;97196.63;5214297;22;20578;-90
2022/11/04 05:35:02;;;;;;;2.20;1.33;;;;;;;11.62;94.18;97198.56;5188773;22;20671;-90
2022/11/04 05:37:05;;;;;;;3.10;1.70;;;;;;;11.61;93.46;97199.50;5189667;22;20614;-91
2022/11/04 05:39:08;;;;;;;3.00;1.70;;;;;;;11.59;94.39;97195.34;5189193;22;20688;-91
2022/11/04 05:41:24;;;;;;;3.87;3.37;;;;;;;11.53;94.46;97201.94;5215116;22;20573;-91
2022/11/04 05:43:27;;;;;;;6.70;6.00;;;;;;;11.52;93.82;97202.09;5189595;22;20611;-91
2022/11/04 05:45:32;;;;;;;4.87;3.03;;;;;;;11.47;95.43;97212.94;5189072;22;20588;-91
2022/11/04 05:47:35;;;;;;;4.50;3.23;;;;;;;11.44;94.90;97212.31;5214022;22;20578;-92
2022/11/04 05:49:38;;;;;;;4.50;2.50;;;;;;;11.40;93.70;97206.53;5190615;22;20567;-91
2022/11/04 05:51:41;;;;;;;6.83;2.10;;;;;;;11.38;93.75;97208.47;5189443;22;21218;-91
2022/11/04 05:53:44;;;;;;;3.90;1.90;;;;;;;11.34;93.45;97214.06;5215010;22;20966;-91
2022/11/04 05:55:47;;;;;;;2.37;1.60;;;;;;;11.32;94.57;97218.56;5188493;22;20576;-91
2022/11/04 05:57:50;;;;;;;4.57;1.80;;;;;;;11.32;95.48;97223.78;5213848;22;20566;-90
2022/11/04 05:59:53;;;;;;;4.23;1.67;;;;;;;11.31;94.20;97216.94;5189736;22;21194;-91
2022/11/04 06:01:58;;;;;;;3.77;1.50;;;;;;;11.28;94.49;97214.59;5189875;22;20575;-91
2022/11/04 06:04:03;;;;;;;3.40;1.40;;;;;;;11.26;94.88;97203.47;5191004;22;20657;-92
2022/11/04 06:06:06;;;;;;;2.83;1.43;;;;;;;11.26;94.82;97202.63;5214462;22;20617;-91
2022/11/04 06:08:09;;;;;;;4.00;1.40;;;;;;;11.24;94.82;97200.13;5190423;22;20579;-91
2022/11/04 06:10:13;;;;;;;3.80;1.60;;;;;;;11.19;94.89;97184.06;5187613;22;20593;-89
2022/11/04 06:12:16;;;;;;;5.83;1.70;;;;;;;11.17;94.71;97193.81;5214489;22;20563;-87
2022/11/04 06:14:19;;;;;;;3.83;1.50;;;;;;;11.17;95.85;97199.03;5187028;22;20613;-88
2022/11/04 06:16:23;;;;;;;3.93;1.80;;;;;;;11.20;95.01;97208.34;5213549;22;20567;-88
2022/11/04 06:18:27;;;;;;;3.70;2.77;;;;;;;11.20;94.57;97221.41;5213542;22;21120;-88
2022/11/04 06:20:30;;;;;;;10.40;2.40;;;;;;;11.21;95.65;97231.72;5214858;22;21141;-87
2022/11/04 06:22:33;;;;;;;6.20;2.80;;;;;;;11.12;93.79;97232.47;5189369;22;20579;-88
2022/11/04 06:24:36;;;;;;;3.47;1.87;;;;;;;10.97;93.91;97230.34;5213098;22;21129;-88
2022/11/04 06:26:40;;;;;;;4.67;1.87;;;;;;;10.85;94.06;97233.97;5189215;22;20568;-89
2022/11/04 06:28:43;;;;;;;2.80;1.93;;;;;;;10.80;95.86;97230.09;5215168;22;20657;-88
2022/11/04 06:30:46;;;;;;;4.60;2.00;;;;;;;10.77;95.51;97240.78;5189112;22;21231;-88
2022/11/04 06:32:49;;;;;;;6.33;2.00;;;;;;;10.76;96.32;97245.16;5186224;22;20583;-88
2022/11/04 06:34:53;;;;;;;3.80;2.23;;;;;;;10.73;94.82;97252.41;5187991;22;20570;-88
2022/11/04 06:36:56;;;;;;;3.40;2.10;;;;;;;10.72;96.69;97254.22;5215735;22;20904;-88
2022/11/04 06:39:00;;;;;;;4.33;2.50;;;;;;;10.74;95.76;97254.09;5187587;22;20582;-88
2022/11/04 06:41:07;;;;;;;3.60;1.80;;;;;;;10.76;97.46;97250.38;5186589;22;21293;-87
2022/11/04 06:43:10;;;;;;;6.70;1.93;;;;;;;10.78;96.76;97248.50;5188725;22;20873;-88
2022/11/04 06:45:15;;;;;;;3.30;1.80;;;;;;;10.80;96.55;97252.59;5191197;22;20607;-88
2022/11/04 06:47:20;;;;;;;5.60;2.27;;;;;;;10.84;96.91;97254.03;5219009;22;21012;-88
2022/11/04 06:49:27;;;;;;;6.87;2.77;;;;;;;10.85;96.57;97262.66;5189624;22;20626;-88
2022/11/04 06:51:32;;;;;;;4.30;2.23;;;;;;;10.86;96.18;97261.72;5216070;22;20570;-88
2022/11/04 06:53:35;;;;;;;5.20;2.20;;;;;;;10.89;96.54;97257.06;5189636;22;20690;-88
2022/11/04 06:55:38;;;;;;;5.10;2.13;;;;;;;10.91;97.43;97256.94;5215404;22;20575;-89
2022/11/04 06:57:41;;;;;;;4.43;2.40;;;;;;;10.93;96.23;97257.63;5215591;22;20578;-88
2022/11/04 06:59:44;;;;;;;3.53;2.17;;;;;;;10.94;96.30;97260.09;5189422;22;20587;-88
2022/11/04 07:01:49;;;;;;;3.90;2.63;;;;;;;10.95;96.49;97264.38;5215395;22;20976;-88
2022/11/04 07:03:53;;;;;;;5.00;2.50;;;;;;;10.94;96.89;97254.91;5217656;22;21389;-88
2022/11/04 07:05:58;;;;;;;3.37;1.93;;;;;;;10.94;97.52;97265.31;5188839;22;20596;-88
2022/11/04 07:08:02;;;;;;;6.70;2.20;;;;;;;10.93;96.59;97255.88;5189717;22;20575;-88
2022/11/04 07:10:06;;;;;;;6.13;2.10;;;;;;;10.96;96.11;97255.63;5214587;22;21131;-86
2022/11/04 07:12:09;;;;;;;5.83;4.07;;;;;;;10.96;97.29;97253.00;5215312;22;20618;-87
2022/11/04 07:14:13;;;;;;;4.87;3.43;;;;;;;10.94;97.44;97252.28;5215890;22;21333;-86
2022/11/04 07:16:16;;;;;;;9.90;4.13;;;;;;;10.97;96.55;97254.63;5216329;22;20573;-86
2022/11/04 07:18:19;;;;;;;6.40;3.70;;;;;;;10.95;96.62;97250.53;5189658;22;20601;-87
2022/11/04 07:20:22;;;;;;;5.80;2.97;;;;;;;10.93;96.09;97242.81;5189841;22;20571;-87
2022/11/04 07:22:26;;;;;;;5.53;3.43;;;;;;;10.92;97.23;97243.78;5216400;22;20578;-87
2022/11/04 07:24:30;;;;;;;6.13;3.50;;;;;;;10.94;96.23;97233.22;5189913;22;20626;-87
2022/11/04 07:26:33;;;;;;;7.63;3.50;;;;;;;10.92;96.81;97225.50;5189631;22;20985;-87
2022/11/04 07:28:37;;;;;;;7.47;3.20;;;;;;;10.92;97.12;97228.13;5189298;22;20573;-87
2022/11/04 07:30:39;;;;;;;5.07;3.10;;;;;;;10.89;96.89;97220.53;5215667;22;20605;-87
2022/11/04 07:32:43;;;;;;;7.83;3.73;;;;;;;10.85;97.39;97221.78;5216033;22;20671;-87
2022/11/04 07:34:46;;;;;;;5.00;3.77;;;;;;;10.89;96.78;97230.16;5215811;22;20577;-87
2022/11/04 07:36:49;;;;;;;4.80;3.17;;;;;;;10.92;98.52;97230.72;5190583;22;20579;-87
2022/11/04 07:38:52;;;;;;;3.87;2.83;;;;;;;10.93;97.69;97227.16;5216947;22;20559;-87
2022/11/04 07:40:57;;;;;;;6.73;4.40;;;;;;;10.96;97.60;97226.06;5216238;22;20571;-87
2022/11/04 07:43:00;;;;;;;8.07;4.73;;;;;;;10.98;97.80;97224.19;5190846;22;20579;-87
2022/11/04 07:45:12;;;;;;;9.73;4.87;;;;;;;10.99;98.71;97234.50;5189631;22;20665;-87
2022/11/04 07:47:15;;;;;;;10.80;6.90;;;;;;;11.01;97.38;97229.16;5212811;22;20598;-88
2022/11/04 07:49:18;;;;;;;13.83;5.30;;;;;;;11.02;97.09;97230.78;5189049;22;21000;-89
2022/11/04 07:51:22;;;;;;;12.07;7.37;;;;;;;11.04;96.97;97232.31;5214183;22;20577;-88
2022/11/04 07:53:25;;;;;;;11.73;5.90;;;;;;;11.03;98.11;97225.44;5189199;22;20586;-88
2022/11/04 07:55:28;;;;;;;13.93;7.63;;;;;;;11.07;98.17;97223.41;5187493;22;20580;-88
2022/11/04 07:57:32;;;;;;;5.03;4.00;;;;;;;11.09;97.98;97224.91;5239927;22;20578;-88
2022/11/04 07:59:35;;;;;;;4.50;3.13;;;;;;;11.14;98.33;97227.13;5187415;22;20708;-88
2022/11/04 08:01:39;;;;;;;5.90;4.37;;;;;;;11.18;98.52;97225.94;5183059;22;20576;-91
2022/11/04 08:03:42;;;;;;;9.27;5.20;;;;;;;11.21;99.25;97226.50;5213980;22;20608;-88
2022/11/04 08:05:45;;;;;;;8.77;5.20;;;;;;;11.25;98.72;97227.91;5210787;22;21567;-88
2022/11/04 08:07:49;;;;;;;12.30;5.87;;;;;;;11.27;98.48;97227.78;5183955;22;20588;-88
2022/11/04 08:09:52;;;;;;;6.30;4.97;;;;;;;11.29;96.96;97224.09;5185886;22;20583;-89
2022/11/04 08:11:55;;;;;;;8.30;4.60;;;;;;;11.32;99.07;97226.41;5210994;22;20620;-88
2022/11/04 08:14:03;;;;;;;7.80;5.13;;;;;;;11.34;98.09;97229.72;5184503;22;20607;-88
2022/11/04 08:16:08;;;;;;;7.60;5.90;;;;;;;11.34;97.86;97235.75;5187906;22;21188;-88
2022/11/04 08:18:11;;;;;;;7.47;5.50;;;;;;;11.38;96.96;97233.72;5190183;22;20583;-88
2022/11/04 08:20:14;;;;;;;11.00;5.10;;;;;;;11.42;97.10;97232.50;5241325;22;20578;-88
2022/11/04 08:22:18;;;;;;;7.63;4.23;;;;;;;11.49;99.01;97241.50;5189430;22;20591;-88
2022/11/04 08:24:21;;;;;;;8.00;3.97;;;;;;;11.53;98.97;97250.72;5215671;22;20610;-87
2022/11/04 08:26:24;;;;;;;8.37;4.67;;;;;;;11.58;97.22;97248.56;5215900;22;20701;-88
2022/11/04 08:28:28;;;;;;;4.90;2.83;;;;;;;11.64;97.18;97255.88;5189107;22;20575;-87
2022/11/04 08:30:33;;;;;;;5.60;3.50;;;;;;;11.65;97.67;97257.50;5216132;22;20574;-87
2022/11/04 08:32:36;;;;;;;5.87;3.47;;;;;;;11.70;97.31;97255.31;5189138;22;20674;-87
2022/11/04 08:34:40;;;;;;;5.93;3.10;;;;;;;11.72;97.15;97256.84;5188716;22;20611;-88
2022/11/04 08:36:44;;;;;;;4.50;2.73;;;;;;;11.76;96.63;97264.28;5213389;22;20611;-87
2022/11/04 08:38:47;;;;;;;7.43;3.50;;;;;;;11.81;95.83;97259.50;5186199;22;21147;-88
2022/11/04 08:40:50;;;;;;;4.00;2.60;;;;;;;11.87;97.11;97251.13;5211071;22;20567;-88
2022/11/04 08:43:01;;;;;;;4.80;3.03;;;;;;;11.95;97.27;97246.06;5213621;22;21180;-87
2022/11/04 08:45:05;;;;;;;5.67;2.90;;;;;;;12.02;95.92;97249.78;5187408;22;20994;-88
2022/11/04 08:47:10;;;;;;;5.43;3.00;;;;;;;12.08;96.41;97251.06;5188609;22;20634;-89
2022/11/04 08:49:13;;;;;;;6.80;2.57;;;;;;;12.11;95.18;97256.00;5186645;22;20675;-90
2022/11/04 08:51:25;;;;;;;3.43;2.60;;;;;;;12.14;95.55;97251.31;5188452;22;20560;-89
2022/11/04 08:53:28;;;;;;;4.53;2.90;;;;;;;12.19;94.76;97256.16;5188142;22;20567;-89
2022/11/04 08:55:32;;;;;;;4.50;2.60;;;;;;;12.23;93.97;97253.13;5188444;22;20580;-89
2022/11/04 08:57:35;;;;;;;4.60;2.93;;;;;;;12.29;95.35;97261.25;5214813;22;20578;-88
2022/11/04 08:59:38;;;;;;;2.93;1.90;;;;;;;12.33;95.34;97254.00;5188412;22;20618;-89
2022/11/04 09:01:42;;;;;;;2.80;1.60;;;;;;;12.38;93.31;97257.00;5188546;22;20577;-88
2022/11/04 09:03:47;;;;;;;2.70;1.70;;;;;;;12.42;92.05;97255.78;5214455;22;21146;-86
2022/11/04 09:05:51;;;;;;;3.53;1.83;;;;;;;12.46;93.38;97259.75;5187951;22;20623;-88
2022/11/04 09:07:54;;;;;;;4.77;1.53;;;;;;;12.50;92.01;97256.75;5216284;22;20571;-87
2022/11/04 09:09:57;;;;;;;2.50;1.50;;;;;;;12.58;92.76;97261.28;5213895;22;20581;-87
2022/11/04 09:12:00;;;;;;;3.20;1.63;;;;;;;12.61;91.27;97261.00;5214295;22;20579;-87
2022/11/04 09:14:04;;;;;;;7.30;3.93;;;;;;;12.64;90.95;97258.94;5214814;22;20665;-87
2022/11/04 09:16:09;;;;;;;3.20;1.67;;;;;;;12.70;92.20;97264.47;5214584;22;21285;-87
2022/11/04 09:18:12;;;;;;;4.97;2.00;;;;;;;12.74;90.92;97260.59;5188256;22;20573;-88
2022/11/04 09:20:17;;;;;;;8.80;2.23;;;;;;;12.78;91.02;97263.78;5188211;22;21134;-87
2022/11/04 09:22:20;;;;;;;3.97;1.83;;;;;;;12.87;91.28;97271.66;5188622;22;20564;-87
2022/11/04 09:24:23;;;;;;;3.27;1.80;;;;;;;12.93;90.69;97273.72;5213720;22;20579;-88
2022/11/04 09:26:26;;;;;;;2.10;1.57;;;;;;;12.97;91.07;97277.69;5189139;22;20672;-88
2022/11/04 09:28:30;;;;;;;2.70;1.60;;;;;;;13.03;89.74;97269.28;5188984;22;20576;-87
2022/11/04 09:30:33;;;;;;;3.23;1.67;;;;;;;13.05;90.56;97272.59;5213848;22;20597;-88
2022/11/04 09:32:36;;;;;;;2.67;1.80;;;;;;;13.10;89.89;97278.25;5188291;22;20755;-88
2022/11/04 09:34:39;;;;;;;5.40;1.90;;;;;;;13.15;90.28;97278.63;5186365;22;21135;-88
2022/11/04 09:36:45;;;;;;;3.07;1.70;;;;;;;13.20;90.06;97273.81;5184595;22;21052;-89
2022/11/04 09:38:49;;;;;;;2.40;1.43;;;;;;;13.25;90.48;97282.91;5185695;22;20578;-88
2022/11/04 09:40:52;;;;;;;7.30;4.60;;;;;;;13.30;90.12;97287.72;5210383;22;20564;-87
2022/11/04 09:43:08;;;;;;;3.70;2.10;;;;;;;13.35;90.60;97282.88;5188658;22;20608;-88
2022/11/04 09:45:14;;;;;;;5.20;2.73;;;;;;;13.38;91.27;97285.19;5188477;22;20677;-88
2022/11/04 09:47:25;;;;;;;3.30;1.57;;;;;;;13.39;89.59;97279.81;5187627;22;20703;-88
2022/11/04 09:49:36;;;;;;;2.37;1.20;;;;;;;13.47;88.86;97279.13;5185589;22;20590;-88
2022/11/04 09:51:41;;;;;;;2.43;1.50;;;;;;;13.52;88.44;97276.91;5187895;22;20576;-88
2022/11/04 09:54:03;;;;;;;2.40;1.50;;;;;;;13.60;89.08;97275.22;5187937;22;20600;-88
2022/11/04 09:56:13;;;;;;;3.43;1.53;;;;;;;13.64;88.55;97261.69;5187472;22;20556;-88
2022/11/04 09:58:16;;;;;;;3.10;1.50;;;;;;;13.73;89.21;97284.41;5188716;22;20603;-88
2022/11/04 10:00:20;;;;;;;4.10;1.50;;;;;;;13.77;87.93;97272.69;5213017;22;20591;-88
2022/11/04 10:02:46;;;;;;;5.07;1.60;;;;;;;13.84;86.83;97267.69;5212931;22;20946;-88
2022/11/04 10:04:57;;;;;;;2.00;1.23;;;;;;;13.85;87.29;97264.91;5213537;22;21199;-89
2022/11/04 10:07:10;;;;;;;2.40;1.43;;;;;;;13.92;86.64;97273.03;5189369;22;20610;-89
2022/11/04 10:09:32;;;;;;;2.73;1.30;;;;;;;13.96;86.39;97277.00;5214348;22;20673;-87
2022/11/04 10:11:41;;;;;;;2.80;1.50;;;;;;;13.91;85.81;97272.22;5213962;22;20606;-88
2022/11/04 10:13:53;;;;;;;2.03;1.37;;;;;;;13.88;85.38;97269.88;5189266;22;20572;-88
2022/11/04 10:16:06;;;;;;;4.10;1.30;;;;;;;13.85;85.39;97264.91;5186807;22;20587;-88
2022/11/04 10:18:22;;;;;;;1.87;1.20;;;;;;;13.79;85.44;97265.50;5213464;22;20715;-88